Create Custom Reports and Graphics: Custom Report

Latest Observations

MWA Stations

15 Minute Data | America/Los_Angeles
as of 5/10/26 1:15 AM PDT
Station Date Time Temp (°F) RH (%) Dew Pt (°F) Wind Dir (°) Wind Spd (mph) Wind Gust (mph) Solar Rad (W/m2) Pressure (mb) Daily Min Temp (°F) Daily Max Temp (°F) Daily Max Wind (mph) Daily Rain (In) Yest MinT (°F) Yest MaxT (°F) Yest MaxGst (mph) Yest Precip (In) MinBV Day (V)
MWA Office 5/10/26 0115 64.5   3.2 43   7 41.2   1.1 SSW | 206 2.0   1.9 5.0   4.2 0   0 1,012.6   1.7 64.4   3.4 65.0   2.3 5.0   4.2 0.00 48.8 95.4 21.5 0.00 12.5   0.0
MWA OPS 5/10/26 0115 57.9   1.9 63   4 45.2   0.1 SW | 230 2.6   2.0 4.6   1.8 0   0 1,013.2   0.6 57.3   2.4 58.5   1.4 4.6   1.8 0.00 52.9 91.2 22.1 0.00 12.9   0.0
LV-PS 5/10/26 0115 68.3   1.4 37   7 40.8   6.5 SW | 216 5.4   1.3 8.8   1.8 0   0 1,010.8   0.8 68.0   1.5 68.5   1.5 8.8   1.8 0.00 60.2 94.5 21.0 0.00 12.9   0.0
JV-PS 5/10/26 0115 72.2   0.0 35   13 43.0   12.1 W | 264 7.6   2.4 12.7   1.3 0   0 1,009.5   0.6 72.0   0.6 72.3   0.5 12.7   1.3 0.00 61.5 94.6 19.3 0.00 12.9   0.0
BDVWA 5/10/26 0115 76.0   6.6 14   5 23.7   1.4 WNW | 298 2.5   2.8 5.7   1.8 0   0 1,007.7   2.0 75.6   6.7 76.7   7.0 5.7   1.8 0.00 64.3 91.3 21.0 0.00 12.9   0.0
Newberry Springs 5/10/26 0115 75.0   1.1 34   2 45.1   0.3 N | 355 13.6   0.8 23.0   0.9 0   0 1,008.6   0.7 74.6   0.9 75.4   1.3 23.0   0.9 0.00 66.4 99.7 30.0 0.00 13.0   0.0
Pinon Hills 5/10/26 0115 58.5   0.1 36   4 31.5   3.4 SW | 220 4.3   0.3 6.6   1.3 0   0 1,012.7   0.8 57.9   2.1 60.6   0.3 6.6   1.3 0.00 49.7 85.4 14.2 0.00 12.9   0.0
Helendale 5/10/26 0115 67.8   2.0 53   5 50.1   4.4 SSW | 200 6.9   2.0 9.9   2.6 0   0 1,010.5   1.4 67.4   1.9 68.4   2.4 9.9   2.6 0.00 52.3 96.6 21.5 0.00 12.9   0.0
Lenwood 5/10/26 0115 64.1   1.8 55   8 47.6   2.5 NW | 313 3.0   2.1 4.6   3.9 0   0 1,011.1   0.5 64.0   1.8 65.0   2.6 4.6   3.9 0.00 56.5 97.8 22.1 0.00 12.9   0.0
Oak Hills 5/10/26 0115 62.3   2.5 50   4 43.6   0.4 SSW | 213 4.9   1.2 8.1   1.8 0   0 1,011.9   1.6 62.2   2.6 62.5   2.1 8.1   1.8 0.00 54.2 81.6 21.9 0.00 13.0   0.0
Pipes Wash Canyon 5/10/26 0100 66.2   2.9 15   6 17.0   6.0 W | 281 3.1   0.4 7.2   1.1 0   0 1,009.5   1.4 61.7   1.4 86.9   0.7 16.7   4.6 0.00 63.1 86.2 21.3 0.00 12.9   0.0
Max     76.0 63 50.1 - 13.6 23.0 0 1,013.2 75.6 86.9 23.0 0.00 66.4 99.7 30.0 0.00 13.0
Avg     66.6 39 39.0 - 5.1 8.7 0 1,010.7 - - - - - - - - -
Min     57.9 14 17.0 - 2.0 4.6 0 1,007.7 57.3 58.5 4.6 0.00 48.8 81.6 14.2 0.00 12.5

Latest Observations

Map

15 Minute Data

Rainfall & ETo

MWA Stations

15 Minute Data | America/Los_Angeles
as of 5/10/26 1:15 AM PDT
Station Date Time Latest Rain (In) Daily Rain (In) Yest Precip (In) Month Precip (In) Season Precip (In) Daily ETo (in) Yest ETo (In) 7 Day ETo (in)
MWA Office 5/10/26 0115 0.00 0.00 0.00 0.00 4.30 0.000 0.29 1.65
MWA OPS 5/10/26 0115 0.00 0.00 0.00 0.00 9.32 0.000 0.31 1.67
LV-PS 5/10/26 0115 0.00 0.00 0.00 0.00 3.63 0.000 0.32 1.90
JV-PS 5/10/26 0115 0.00 0.00 0.00 0.02 6.39 0.000 0.32 1.93
BDVWA 5/10/26 0115 0.00 0.00 0.00 0.03 6.39 0.000 0.32 1.81
Newberry Springs 5/10/26 0115 0.00 0.00 0.00 0.00 2.70 0.000 0.38 2.20
Pinon Hills 5/10/26 0115 0.00 0.00 0.00 0.00 15.51 0.000 0.26 1.53
Helendale 5/10/26 0115 0.00 0.00 0.00 0.00 5.55 0.000 0.30 1.88
Lenwood 5/10/26 0115 0.00 0.00 0.00 0.00 4.24 0.000 0.31 1.93
Oak Hills 5/10/26 0115 0.00 0.00 0.00 0.00 14.72 0.000 0.28 1.41
Pipes Wash Canyon 5/10/26 0100 0.00 0.00 0.00 0.00 13.92 0.271 0.28 1.57
Max     0.00 0.00 0.00 0.03 15.51 0.271 0.38 2.20
Avg     0.00 - - - - - - -
Min     0.00 0.00 0.00 0.00 2.70 0.000 0.26 1.41